Time;durP1;ratioP1;P1;durP2;ratioP2;P2;SDS_P1;SDS_P2;PMS_P1;PMS_P2;Temp;Humidity;BMP_temperature;BMP_pressure;BME280_temperature;BME280_humidity;BME280_pressure;Samples;Min_cycle;Max_cycle;Signal;HPM_P1;HPM_P2
2022/09/16 00:02:05;;;;;;;1.80;0.83;;;16.20;94.10;;;;;;5088620;28;20664;-83
2022/09/16 00:04:32;;;;;;;2.63;0.67;;;16.10;94.00;;;;;;5071487;28;20230;-81
2022/09/16 00:06:59;;;;;;;2.93;1.17;;;16.10;94.00;;;;;;5086165;28;20226;-81
2022/09/16 00:09:26;;;;;;;2.87;0.93;;;16.20;94.10;;;;;;5090753;28;20200;-83
2022/09/16 00:11:53;;;;;;;1.80;0.77;;;16.10;94.00;;;;;;5097966;28;20195;-82
2022/09/16 00:14:20;;;;;;;1.33;1.03;;;16.10;94.00;;;;;;5100016;28;20211;-81
2022/09/16 00:16:47;;;;;;;1.23;0.97;;;16.10;93.90;;;;;;5076812;28;20196;-80
2022/09/16 00:19:15;;;;;;;0.93;0.80;;;16.10;94.00;;;;;;5093727;28;20280;-83
2022/09/16 00:21:43;;;;;;;0.70;0.70;;;16.10;94.00;;;;;;5079698;28;20300;-82
2022/09/16 00:24:12;;;;;;;1.10;0.73;;;16.10;93.90;;;;;;5094071;28;20272;-82
2022/09/16 00:26:40;;;;;;;0.93;0.60;;;16.10;93.80;;;;;;5070721;28;20200;-81
2022/09/16 00:29:07;;;;;;;1.60;0.73;;;16.10;93.80;;;;;;5070941;28;20358;-82
2022/09/16 00:31:34;;;;;;;0.77;0.60;;;16.10;93.80;;;;;;5074909;28;20203;-81
2022/09/16 00:34:01;;;;;;;2.40;0.67;;;16.10;94.10;;;;;;5095443;28;20695;-83
2022/09/16 00:36:29;;;;;;;1.60;0.90;;;16.10;93.70;;;;;;5098229;28;20204;-82
2022/09/16 00:38:57;;;;;;;0.67;0.50;;;16.10;93.70;;;;;;5078382;28;20264;-80
2022/09/16 00:41:26;;;;;;;3.37;0.70;;;16.20;94.00;;;;;;5090642;28;20194;-82
2022/09/16 00:43:56;;;;;;;2.20;0.80;;;16.00;93.90;;;;;;5090553;28;20193;-81
2022/09/16 00:46:29;;;;;;;1.00;0.70;;;16.00;93.60;;;;;;5096487;28;20223;-82
2022/09/16 00:48:57;;;;;;;0.60;0.60;;;16.00;93.50;;;;;;5094567;28;20656;-82
2022/09/16 00:51:25;;;;;;;1.40;0.80;;;16.00;93.50;;;;;;5090792;28;20681;-81
2022/09/16 00:53:59;;;;;;;0.83;0.70;;;16.00;93.50;;;;;;5079464;28;20220;-82
2022/09/16 00:56:28;;;;;;;1.67;1.00;;;16.00;93.50;;;;;;5096108;28;20632;-82
2022/09/16 00:59:02;;;;;;;0.63;0.63;;;16.00;93.50;;;;;;5088947;28;20272;-81
2022/09/16 01:01:29;;;;;;;0.70;0.53;;;16.00;93.40;;;;;;5093711;28;20618;-82
2022/09/16 01:04:01;;;;;;;0.60;0.60;;;16.00;93.50;;;;;;5082514;28;20192;-82
2022/09/16 01:06:30;;;;;;;1.27;0.60;;;16.00;93.50;;;;;;5102239;28;20279;-82
2022/09/16 01:08:58;;;;;;;0.77;0.60;;;16.00;93.40;;;;;;5099336;28;20657;-83
2022/09/16 01:11:26;;;;;;;0.50;0.50;;;16.00;93.30;;;;;;5073106;28;20193;-83
2022/09/16 01:13:54;;;;;;;0.63;0.60;;;16.00;93.20;;;;;;5096621;28;20262;-82
2022/09/16 01:16:28;;;;;;;0.93;0.63;;;16.00;93.10;;;;;;5071224;28;20694;-82
2022/09/16 01:19:05;;;;;;;1.63;0.60;;;16.00;93.00;;;;;;5101566;28;20306;-81
2022/09/16 01:21:43;;;;;;;2.27;0.80;;;16.00;92.90;;;;;;5074514;28;20240;-80
2022/09/16 01:24:40;;;;;;;1.00;0.60;;;16.00;92.80;;;;;;5095245;28;20197;-82
2022/09/16 01:27:48;;;;;;;1.27;0.63;;;16.00;92.70;;;;;;5079804;28;20203;-81
2022/09/16 01:30:43;;;;;;;0.60;0.50;;;16.00;92.60;;;;;;5095456;28;20212;-80
2022/09/16 01:33:18;;;;;;;0.73;0.60;;;15.90;92.50;;;;;;5079267;28;20209;-81
2022/09/16 01:35:57;;;;;;;1.23;0.70;;;15.90;92.40;;;;;;5091956;28;20291;-82
2022/09/16 01:38:36;;;;;;;2.60;0.90;;;15.90;92.20;;;;;;5075035;28;20211;-80
2022/09/16 01:41:10;;;;;;;1.03;0.90;;;15.80;92.20;;;;;;5076449;28;20200;-81
2022/09/16 01:43:44;;;;;;;1.03;0.53;;;15.80;92.20;;;;;;5088542;28;20188;-79
2022/09/16 01:46:21;;;;;;;3.33;0.80;;;15.80;92.30;;;;;;5070165;28;20193;-80
2022/09/16 01:48:53;;;;;;;1.03;0.50;;;15.80;92.30;;;;;;5070768;28;20204;-80
2022/09/16 01:51:25;;;;;;;1.20;0.60;;;15.80;92.30;;;;;;5071165;28;20212;-80
2022/09/16 01:53:59;;;;;;;1.20;0.60;;;15.80;92.30;;;;;;5070453;28;20621;-81
2022/09/16 01:56:33;;;;;;;2.00;0.90;;;15.80;92.40;;;;;;5076623;28;20196;-80
2022/09/16 01:59:04;;;;;;;0.70;0.60;;;15.80;92.50;;;;;;5088714;28;20216;-81
2022/09/16 02:01:36;;;;;;;1.63;0.77;;;15.80;92.50;;;;;;5068441;28;20232;-79
2022/09/16 02:04:07;;;;;;;0.80;0.60;;;15.80;92.50;;;;;;5100638;27;20220;-81
2022/09/16 02:06:35;;;;;;;0.97;0.60;;;15.80;92.50;;;;;;5071633;28;20261;-81
2022/09/16 02:09:07;;;;;;;1.60;0.80;;;15.80;92.80;;;;;;5071192;28;20200;-80
2022/09/16 02:11:36;;;;;;;1.53;0.70;;;15.70;92.50;;;;;;5096794;28;20212;-81
2022/09/16 02:14:07;;;;;;;2.13;0.90;;;15.70;92.60;;;;;;5086678;28;20196;-79
2022/09/16 02:16:39;;;;;;;2.40;0.80;;;15.70;92.70;;;;;;5091212;28;20200;-80
2022/09/16 02:19:09;;;;;;;1.43;0.77;;;15.70;92.80;;;;;;5069351;28;20284;-80
2022/09/16 02:21:39;;;;;;;2.73;1.00;;;15.70;92.80;;;;;;5092645;28;20585;-79
2022/09/16 02:24:11;;;;;;;1.97;0.90;;;15.70;93.20;;;;;;5087685;28;20244;-80
2022/09/16 02:26:42;;;;;;;1.23;0.60;;;15.70;93.00;;;;;;5069376;28;20690;-81
2022/09/16 02:29:14;;;;;;;2.57;0.70;;;15.70;93.00;;;;;;5089237;28;20210;-80
2022/09/16 02:31:44;;;;;;;1.47;0.90;;;15.70;92.80;;;;;;5086992;28;20296;-80
2022/09/16 02:34:14;;;;;;;1.00;0.60;;;15.70;93.20;;;;;;5083883;28;20181;-81
2022/09/16 02:36:45;;;;;;;1.83;0.73;;;15.60;92.80;;;;;;5085075;28;20953;-80
2022/09/16 02:39:18;;;;;;;2.97;1.07;;;15.60;92.90;;;;;;5085091;28;20725;-80
2022/09/16 02:41:46;;;;;;;1.37;0.63;;;15.60;92.70;;;;;;5080731;28;20599;-81
2022/09/16 02:44:13;;;;;;;1.00;0.80;;;15.60;92.70;;;;;;5086927;28;20189;-81
2022/09/16 02:46:52;;;;;;;2.10;0.50;;;15.50;92.70;;;;;;5070662;28;20540;-82
2022/09/16 02:49:26;;;;;;;1.97;0.90;;;15.50;92.70;;;;;;5072023;28;20196;-82
2022/09/16 02:51:59;;;;;;;2.70;1.00;;;15.50;92.70;;;;;;5067857;28;20281;-82
2022/09/16 02:54:35;;;;;;;1.17;0.60;;;15.50;93.30;;;;;;5080924;28;20208;-82
2022/09/16 02:57:04;;;;;;;2.80;0.70;;;15.50;92.80;;;;;;5081760;28;20555;-80
2022/09/16 02:59:31;;;;;;;0.80;0.67;;;15.40;92.90;;;;;;5069618;28;20209;-82
2022/09/16 03:02:00;;;;;;;1.43;0.70;;;15.40;93.20;;;;;;5083494;28;20706;-81
2022/09/16 03:04:29;;;;;;;2.10;0.87;;;15.40;92.90;;;;;;5093795;28;20185;-82
2022/09/16 03:06:57;;;;;;;1.30;0.90;;;15.40;93.00;;;;;;5101924;28;20200;-81
2022/09/16 03:09:24;;;;;;;3.30;0.80;;;15.40;93.00;;;;;;5083952;28;20556;-80
2022/09/16 03:12:24;;;;;;;0.87;0.63;;;15.40;93.10;;;;;;5068247;28;20533;-81
2022/09/16 03:15:22;;;;;;;1.47;0.60;;;15.40;93.10;;;;;;5075670;28;20224;-81
2022/09/16 03:18:21;;;;;;;0.70;0.70;;;15.50;93.20;;;;;;5088702;28;20196;-80
2022/09/16 03:20:58;;;;;;;1.97;0.90;;;15.40;93.20;;;;;;5063079;28;20650;-81
2022/09/16 03:23:36;;;;;;;1.20;0.60;;;15.40;93.20;;;;;;5087356;28;20244;-81
2022/09/16 03:26:11;;;;;;;1.33;0.80;;;15.40;93.20;;;;;;5064442;28;20223;-80
2022/09/16 03:28:46;;;;;;;2.70;1.20;;;15.40;93.20;;;;;;5084233;28;20521;-80
2022/09/16 03:31:18;;;;;;;3.57;0.90;;;15.40;93.20;;;;;;5084116;28;20561;-80
2022/09/16 03:33:50;;;;;;;3.60;0.80;;;15.40;93.20;;;;;;5070400;28;21418;-80
2022/09/16 03:36:25;;;;;;;2.10;0.80;;;15.30;93.30;;;;;;5089239;28;20655;-80
2022/09/16 03:38:53;;;;;;;0.73;0.53;;;15.30;93.20;;;;;;5066388;28;20303;-80
2022/09/16 03:41:21;;;;;;;1.33;0.70;;;15.30;93.20;;;;;;5070148;28;20201;-79
2022/09/16 03:43:54;;;;;;;0.80;0.60;;;15.30;93.20;;;;;;5092128;28;20196;-80
2022/09/16 03:46:22;;;;;;;3.47;1.00;;;15.30;93.00;;;;;;5086208;28;20199;-79
2022/09/16 03:48:48;;;;;;;1.77;0.50;;;15.30;93.10;;;;;;5096687;28;20351;-80
2022/09/16 03:51:16;;;;;;;2.50;0.80;;;15.30;93.10;;;;;;5093946;28;20199;-79
2022/09/16 03:53:44;;;;;;;1.53;0.87;;;15.20;93.20;;;;;;5094300;28;20196;-79
2022/09/16 03:56:11;;;;;;;3.47;0.90;;;15.20;93.20;;;;;;5082118;28;20215;-79
2022/09/16 03:58:38;;;;;;;1.03;0.93;;;15.20;93.50;;;;;;5088301;28;20624;-79
2022/09/16 04:01:05;;;;;;;1.37;0.80;;;15.20;93.30;;;;;;5092035;28;20241;-78
2022/09/16 04:03:32;;;;;;;2.37;0.90;;;15.10;93.30;;;;;;5079301;28;20191;-81
2022/09/16 04:05:59;;;;;;;1.37;0.90;;;15.10;93.40;;;;;;5102731;28;20212;-80
2022/09/16 04:08:26;;;;;;;3.27;0.90;;;15.20;93.40;;;;;;5094942;28;20196;-80
2022/09/16 04:10:59;;;;;;;2.77;0.90;;;15.10;93.70;;;;;;5085669;28;20203;-80
2022/09/16 04:13:26;;;;;;;2.37;1.20;;;15.10;93.50;;;;;;5095023;28;21003;-81
2022/09/16 04:15:53;;;;;;;2.17;1.13;;;15.00;93.50;;;;;;5098749;28;20286;-81
2022/09/16 04:18:20;;;;;;;2.67;0.73;;;15.00;93.50;;;;;;5095157;28;20614;-81
2022/09/16 04:20:47;;;;;;;1.00;0.90;;;15.00;93.60;;;;;;5073223;28;20675;-80
2022/09/16 04:23:14;;;;;;;1.43;0.93;;;15.00;93.60;;;;;;5091650;28;20201;-82
2022/09/16 04:25:41;;;;;;;3.33;1.10;;;15.00;93.70;;;;;;5088215;28;20202;-82
2022/09/16 04:28:10;;;;;;;3.47;0.83;;;15.00;93.60;;;;;;5091297;28;21018;-82
2022/09/16 04:30:37;;;;;;;1.73;0.80;;;15.00;93.70;;;;;;5096631;28;20220;-81
2022/09/16 04:33:04;;;;;;;3.30;0.80;;;15.00;93.70;;;;;;5074020;28;20200;-81
2022/09/16 04:35:31;;;;;;;3.03;0.93;;;15.00;93.70;;;;;;5074655;28;20222;-80
2022/09/16 04:37:58;;;;;;;2.57;1.30;;;15.00;93.70;;;;;;5075687;28;20315;-80
2022/09/16 04:40:25;;;;;;;2.70;1.03;;;15.00;93.70;;;;;;5091181;28;20196;-81
2022/09/16 04:42:52;;;;;;;1.83;0.90;;;15.00;93.80;;;;;;5070721;28;20225;-82
2022/09/16 04:45:20;;;;;;;2.73;1.03;;;15.00;93.70;;;;;;5090861;28;20212;-80
2022/09/16 04:47:47;;;;;;;1.30;0.90;;;15.00;93.70;;;;;;5094400;28;20242;-81
2022/09/16 04:50:14;;;;;;;0.57;0.53;;;15.00;93.70;;;;;;5097672;28;20196;-81
2022/09/16 04:52:43;;;;;;;1.03;0.60;;;15.10;93.80;;;;;;5102781;28;20257;-80
2022/09/16 04:55:10;;;;;;;1.17;0.70;;;15.10;93.80;;;;;;5074356;28;20294;-80
2022/09/16 04:57:37;;;;;;;2.43;0.73;;;15.10;93.70;;;;;;5087805;28;20596;-83
2022/09/16 05:00:05;;;;;;;1.43;0.93;;;15.10;93.80;;;;;;5089728;28;20201;-81
2022/09/16 05:02:33;;;;;;;0.87;0.60;;;15.20;93.80;;;;;;5077020;28;20733;-81
2022/09/16 05:05:00;;;;;;;4.40;0.87;;;15.20;93.80;;;;;;5096799;28;20192;-82
2022/09/16 05:07:28;;;;;;;1.73;0.60;;;15.20;94.10;;;;;;5089527;28;20193;-83
2022/09/16 05:09:55;;;;;;;1.30;0.83;;;15.20;93.80;;;;;;5068533;28;20223;-81
2022/09/16 05:12:22;;;;;;;1.90;0.83;;;15.10;93.80;;;;;;5101065;28;20199;-81
2022/09/16 05:14:49;;;;;;;4.27;1.17;;;15.20;93.90;;;;;;5075709;28;20223;-82
2022/09/16 05:17:16;;;;;;;1.73;0.90;;;15.10;93.90;;;;;;5099515;28;20208;-81
2022/09/16 05:19:45;;;;;;;2.07;0.97;;;15.10;93.90;;;;;;5090958;28;20224;-81
2022/09/16 05:22:12;;;;;;;1.33;0.77;;;15.10;93.90;;;;;;5076349;28;20239;-81
2022/09/16 05:24:39;;;;;;;1.83;1.00;;;15.10;93.90;;;;;;5075983;28;20206;-80
2022/09/16 05:27:06;;;;;;;2.00;0.80;;;14.70;93.90;;;;;;5091523;28;20652;-81
2022/09/16 05:29:33;;;;;;;7.60;1.57;;;15.10;94.10;;;;;;5098055;28;20230;-81
2022/09/16 05:32:00;;;;;;;4.00;1.00;;;15.10;93.80;;;;;;5090932;28;20203;-81
2022/09/16 05:34:27;;;;;;;1.20;0.83;;;15.00;94.10;;;;;;5092197;28;20314;-81
2022/09/16 05:36:56;;;;;;;1.77;0.70;;;15.00;93.80;;;;;;5093441;28;20220;-80
2022/09/16 05:39:24;;;;;;;1.23;0.80;;;15.00;93.90;;;;;;5092437;28;20200;-81
2022/09/16 05:41:55;;;;;;;1.77;0.97;;;15.00;93.90;;;;;;5074302;28;20246;-81
2022/09/16 05:44:22;;;;;;;2.27;1.00;;;15.00;93.90;;;;;;5091573;28;20230;-80
2022/09/16 05:46:49;;;;;;;1.50;0.80;;;15.00;93.90;;;;;;5089916;28;20188;-80
2022/09/16 05:49:19;;;;;;;2.77;1.10;;;15.00;93.90;;;;;;5068948;28;21475;-81
2022/09/16 05:51:47;;;;;;;1.33;0.90;;;15.00;93.90;;;;;;5091695;28;20582;-81
2022/09/16 05:54:17;;;;;;;3.93;1.10;;;15.10;94.00;;;;;;5077397;28;20224;-80
2022/09/16 05:56:44;;;;;;;2.70;0.93;;;15.10;94.00;;;;;;5080772;28;20311;-81
2022/09/16 05:59:12;;;;;;;1.87;0.97;;;15.10;94.00;;;;;;5072717;28;20287;-81
2022/09/16 06:01:39;;;;;;;5.63;1.27;;;15.10;93.90;;;;;;5074153;28;20234;-79
2022/09/16 06:04:09;;;;;;;4.03;1.50;;;15.20;93.90;;;;;;5092985;28;20185;-80
2022/09/16 06:06:38;;;;;;;2.87;1.00;;;15.20;93.80;;;;;;5073426;28;20192;-78
2022/09/16 06:09:07;;;;;;;4.23;0.80;;;15.20;93.60;;;;;;5090463;28;20196;-79
2022/09/16 06:11:39;;;;;;;3.00;1.30;;;15.10;93.60;;;;;;5091237;28;20231;-81
2022/09/16 06:14:08;;;;;;;2.43;0.93;;;15.10;93.50;;;;;;5102844;28;20187;-78
2022/09/16 06:16:35;;;;;;;3.20;1.20;;;15.10;93.80;;;;;;5089095;28;20220;-79
2022/09/16 06:19:05;;;;;;;1.90;1.10;;;15.10;93.50;;;;;;5092013;28;20625;-79
2022/09/16 06:21:32;;;;;;;5.53;1.43;;;15.10;93.40;;;;;;5095987;28;20672;-81
2022/09/16 06:24:00;;;;;;;2.40;1.00;;;15.10;93.50;;;;;;5098893;28;20199;-78
2022/09/16 06:26:27;;;;;;;2.43;1.30;;;16.70;94.20;;;;;;5088348;28;20956;-79
2022/09/16 06:28:56;;;;;;;1.00;0.80;;;15.10;93.40;;;;;;5070325;28;20228;-80
2022/09/16 06:31:25;;;;;;;1.47;0.90;;;15.10;93.50;;;;;;5088026;28;20296;-81
2022/09/16 06:33:54;;;;;;;3.77;1.27;;;15.10;93.30;;;;;;5090547;28;20283;-80
2022/09/16 06:36:25;;;;;;;2.73;1.10;;;15.10;93.20;;;;;;5091616;28;20311;-80
2022/09/16 06:38:52;;;;;;;2.30;1.30;;;15.20;93.20;;;;;;5068612;28;20281;-81
2022/09/16 06:41:20;;;;;;;3.77;1.10;;;15.20;93.10;;;;;;5075068;28;20197;-80
2022/09/16 06:43:50;;;;;;;2.60;1.10;;;15.20;93.10;;;;;;5091008;28;20613;-80
2022/09/16 06:46:20;;;;;;;2.87;0.97;;;15.30;93.10;;;;;;5075264;28;20195;-80
2022/09/16 06:48:49;;;;;;;3.13;1.07;;;15.30;93.00;;;;;;5086222;28;20200;-78
2022/09/16 06:51:18;;;;;;;3.93;1.10;;;15.30;92.90;;;;;;5101152;28;20199;-79
2022/09/16 06:53:46;;;;;;;1.13;0.80;;;15.30;92.90;;;;;;5082084;28;20207;-80
2022/09/16 06:56:15;;;;;;;4.23;1.00;;;15.30;92.90;;;;;;5094911;28;20211;-80
2022/09/16 06:58:46;;;;;;;5.60;1.17;;;15.30;92.80;;;;;;5064242;28;20203;-81
2022/09/16 07:01:15;;;;;;;7.70;1.70;;;15.40;92.90;;;;;;5072046;28;20204;-80
2022/09/16 07:03:46;;;;;;;1.57;0.93;;;15.50;92.60;;;;;;5090568;28;20228;-80
2022/09/16 07:06:14;;;;;;;2.00;0.80;;;15.50;92.50;;;;;;5088346;28;20189;-80
2022/09/16 07:08:42;;;;;;;3.97;0.80;;;15.50;92.30;;;;;;5087973;28;20700;-80
2022/09/16 07:11:12;;;;;;;2.57;1.40;;;15.50;92.50;;;;;;5075160;28;20204;-80
2022/09/16 07:13:39;;;;;;;3.43;1.40;;;15.50;92.30;;;;;;5094427;28;20279;-81
2022/09/16 07:16:08;;;;;;;1.30;0.73;;;15.50;92.00;;;;;;5070784;28;20609;-82
2022/09/16 07:18:35;;;;;;;1.00;0.60;;;15.50;92.00;;;;;;5097022;28;20190;-79
2022/09/16 07:21:05;;;;;;;7.57;1.10;;;15.50;92.00;;;;;;5073890;28;20201;-80
2022/09/16 07:23:33;;;;;;;2.53;1.20;;;15.60;92.00;;;;;;5090955;28;20210;-79
2022/09/16 07:26:02;;;;;;;1.40;0.80;;;15.70;91.90;;;;;;5081633;28;20529;-79
2022/09/16 07:28:30;;;;;;;2.70;1.10;;;15.70;91.70;;;;;;5094479;28;20200;-81
2022/09/16 07:30:59;;;;;;;9.13;1.20;;;15.70;92.00;;;;;;5084163;28;20648;-80
2022/09/16 07:33:26;;;;;;;1.60;0.77;;;15.80;92.00;;;;;;5087927;28;20295;-78
2022/09/16 07:35:58;;;;;;;1.37;0.80;;;15.90;91.80;;;;;;5085686;28;20216;-80
2022/09/16 07:38:27;;;;;;;1.63;0.77;;;16.00;91.70;;;;;;5085933;28;20244;-82
2022/09/16 07:40:54;;;;;;;2.33;1.00;;;16.00;91.70;;;;;;5070635;28;20279;-80
2022/09/16 07:43:21;;;;;;;3.40;1.10;;;16.10;91.70;;;;;;5068132;28;20284;-80
2022/09/16 07:45:56;;;;;;;0.67;0.60;;;16.10;91.50;;;;;;5067408;28;20279;-82
2022/09/16 07:48:23;;;;;;;4.70;0.80;;;16.10;91.50;;;;;;5083238;28;20200;-81
2022/09/16 07:50:55;;;;;;;5.20;1.57;;;16.10;91.30;;;;;;5082314;28;20200;-80
2022/09/16 07:53:22;;;;;;;2.67;0.60;;;16.10;91.20;;;;;;5084175;28;20618;-79
2022/09/16 07:55:51;;;;;;;1.70;1.13;;;16.10;91.20;;;;;;5085609;28;20271;-79
2022/09/16 07:58:18;;;;;;;1.67;0.80;;;16.10;91.30;;;;;;5085927;28;20722;-79
2022/09/16 08:00:46;;;;;;;1.10;0.80;;;16.10;91.30;;;;;;5068909;28;20193;-80
2022/09/16 08:03:13;;;;;;;0.80;0.70;;;16.10;91.40;;;;;;5081981;28;20225;-81
2022/09/16 08:05:40;;;;;;;4.00;1.30;;;16.10;91.40;;;;;;5088617;28;20192;-80
2022/09/16 08:08:07;;;;;;;2.17;1.10;;;16.20;91.50;;;;;;5093032;28;20280;-79
2022/09/16 08:10:35;;;;;;;2.20;0.80;;;16.10;91.40;;;;;;5093499;28;20200;-78
2022/09/16 08:13:04;;;;;;;3.63;1.20;;;16.20;91.80;;;;;;5084237;28;20196;-80
2022/09/16 08:15:31;;;;;;;1.67;0.90;;;16.20;91.40;;;;;;5091585;28;20249;-79
2022/09/16 08:17:58;;;;;;;2.77;1.10;;;16.10;91.30;;;;;;5084993;28;20205;-78
2022/09/16 08:20:27;;;;;;;1.83;1.07;;;16.10;91.50;;;;;;5084155;28;20283;-78
2022/09/16 08:22:54;;;;;;;5.20;1.13;;;16.20;91.60;;;;;;5066361;28;20307;-78
2022/09/16 08:25:21;;;;;;;1.73;0.87;;;16.30;91.60;;;;;;5108014;28;20254;-78
2022/09/16 08:27:48;;;;;;;3.40;1.40;;;16.30;91.90;;;;;;5093042;28;20230;-78
2022/09/16 08:30:16;;;;;;;1.13;0.90;;;16.30;92.00;;;;;;5095335;28;20196;-79
2022/09/16 08:32:43;;;;;;;2.43;1.00;;;16.30;91.70;;;;;;5069470;28;20295;-80
2022/09/16 08:35:10;;;;;;;2.70;1.00;;;16.20;91.60;;;;;;5089349;28;20181;-79
2022/09/16 08:37:37;;;;;;;1.10;1.00;;;16.20;91.60;;;;;;5068613;28;20802;-79
2022/09/16 08:40:05;;;;;;;2.03;0.90;;;16.20;91.60;;;;;;5066277;28;20197;-78
2022/09/16 08:42:42;;;;;;;3.30;1.17;;;16.30;91.70;;;;;;5089399;28;20628;-79
2022/09/16 08:45:25;;;;;;;2.80;0.90;;;16.30;91.60;;;;;;5100164;27;21083;-79
2022/09/16 08:48:07;;;;;;;2.67;1.00;;;16.40;91.40;;;;;;5086208;28;20185;-79
2022/09/16 08:50:39;;;;;;;2.53;1.00;;;16.50;90.60;;;;;;5078979;28;20243;-79
2022/09/16 08:53:13;;;;;;;2.47;0.93;;;16.50;90.30;;;;;;5096198;28;20204;-81
2022/09/16 08:55:45;;;;;;;2.20;0.87;;;16.50;90.40;;;;;;5092241;28;20199;-78
2022/09/16 08:58:18;;;;;;;1.73;0.80;;;16.40;90.10;;;;;;5084468;28;20208;-77
2022/09/16 09:00:53;;;;;;;0.90;0.73;;;16.40;90.30;;;;;;5096331;28;20211;-77
2022/09/16 09:03:36;;;;;;;2.97;1.00;;;16.40;90.20;;;;;;5093330;28;20235;-76
2022/09/16 09:06:11;;;;;;;4.90;1.00;;;16.40;90.30;;;;;;5100563;28;20189;-79
2022/09/16 09:08:50;;;;;;;3.03;0.80;;;16.40;90.10;;;;;;5102115;28;20192;-77
2022/09/16 09:11:24;;;;;;;2.93;0.67;;;16.40;90.10;;;;;;5076185;28;20250;-76
2022/09/16 09:14:09;;;;;;;1.47;1.10;;;16.50;90.00;;;;;;5094253;28;20192;-77
2022/09/16 09:16:48;;;;;;;2.03;0.90;;;16.60;89.50;;;;;;5071995;28;20219;-77
2022/09/16 09:19:31;;;;;;;1.07;0.93;;;16.70;89.60;;;;;;5090166;28;20238;-77
2022/09/16 09:22:06;;;;;;;3.43;0.93;;;16.80;89.20;;;;;;5091208;28;20205;-76
2022/09/16 09:24:47;;;;;;;2.20;1.10;;;16.80;88.90;;;;;;5095380;28;20279;-77
2022/09/16 09:27:18;;;;;;;1.93;0.90;;;16.80;88.60;;;;;;5101966;28;20256;-77
2022/09/16 09:30:00;;;;;;;0.97;0.63;;;16.80;88.50;;;;;;5091892;28;20552;-76
2022/09/16 09:32:46;;;;;;;2.13;0.90;;;16.80;88.60;;;;;;5092174;28;20197;-76
2022/09/16 09:35:33;;;;;;;4.33;0.73;;;16.80;88.50;;;;;;5096140;28;20197;-76
2022/09/16 09:38:35;;;;;;;2.23;0.97;;;16.80;88.30;;;;;;5094378;28;20285;-76
2022/09/16 09:41:08;;;;;;;2.77;0.87;;;16.80;88.00;;;;;;5121870;28;20180;-77
2022/09/16 09:43:40;;;;;;;0.67;0.50;;;16.90;87.80;;;;;;5116452;28;20172;-76
2022/09/16 09:46:13;;;;;;;2.77;1.17;;;17.10;87.90;;;;;;5075792;28;20682;-76
2022/09/16 09:48:45;;;;;;;1.53;0.83;;;17.80;87.10;;;;;;5075823;28;20626;-78
2022/09/16 09:51:20;;;;;;;2.00;1.00;;;18.20;86.00;;;;;;5091680;28;20194;-77
2022/09/16 09:53:53;;;;;;;18.47;1.10;;;18.20;84.30;;;;;;5098921;28;20213;-77
2022/09/16 09:56:23;;;;;;;3.83;0.83;;;18.40;83.60;;;;;;5104519;28;20209;-77
2022/09/16 09:58:58;;;;;;;0.80;0.80;;;18.40;82.80;;;;;;5105303;28;20221;-77
2022/09/16 10:01:25;;;;;;;1.88;0.90;;;18.30;82.70;;;;;;5081936;28;20521;-76
2022/09/16 10:03:56;;;;;;;3.07;0.80;;;18.20;83.00;;;;;;5100998;28;20286;-77
2022/09/16 10:06:28;;;;;;;1.40;0.90;;;18.00;83.30;;;;;;5112590;28;20185;-77
2022/09/16 10:08:58;;;;;;;2.47;1.07;;;17.80;82.90;;;;;;5114393;28;20175;-77
2022/09/16 10:11:29;;;;;;;3.47;0.82;;;17.70;82.70;;;;;;5110653;28;20269;-78
2022/09/16 10:13:59;;;;;;;1.08;0.70;;;17.70;82.70;;;;;;5102570;28;20270;-78
2022/09/16 10:16:29;;;;;;;2.22;1.13;;;17.70;83.10;;;;;;5117680;28;20244;-78
2022/09/16 10:19:02;;;;;;;2.83;1.08;;;17.60;82.70;;;;;;5112719;28;20273;-77
2022/09/16 10:21:40;;;;;;;2.90;0.90;;;17.60;82.40;;;;;;5108490;28;20190;-77
2022/09/16 10:24:30;;;;;;;0.80;0.75;;;17.70;82.60;;;;;;5132507;27;20192;-75
2022/09/16 10:26:58;;;;;;;3.42;1.10;;;18.00;81.90;;;;;;5093959;28;20296;-73
2022/09/16 10:29:25;;;;;;;1.98;0.80;;;18.50;82.50;;;;;;5114181;28;20205;-73
2022/09/16 10:31:53;;;;;;;4.53;0.90;;;19.00;81.50;;;;;;5113820;28;20195;-73
2022/09/16 10:34:27;;;;;;;4.40;0.85;;;19.30;81.00;;;;;;5082107;28;20208;-73
2022/09/16 10:37:04;;;;;;;0.88;0.80;;;19.40;80.10;;;;;;5083300;28;20223;-76
2022/09/16 10:39:32;;;;;;;1.38;0.82;;;19.20;79.00;;;;;;5083896;28;20185;-76
2022/09/16 10:42:00;;;;;;;2.72;1.10;;;19.10;78.30;;;;;;5086634;28;20209;-76
2022/09/16 10:44:29;;;;;;;7.95;1.17;;;19.40;78.20;;;;;;5094768;28;20196;-77
2022/09/16 10:47:00;;;;;;;1.83;0.98;;;19.80;77.20;;;;;;5087112;28;20192;-77
2022/09/16 10:49:37;;;;;;;1.97;0.90;;;20.00;76.30;;;;;;5067027;28;20207;-77
2022/09/16 10:52:17;;;;;;;1.25;0.80;;;20.00;74.80;;;;;;5090428;28;20193;-76
2022/09/16 10:54:44;;;;;;;0.80;0.80;;;20.20;74.70;;;;;;5087131;28;20286;-76
2022/09/16 10:57:27;;;;;;;1.92;0.82;;;20.60;74.60;;;;;;5088085;28;20291;-76
2022/09/16 11:00:00;;;;;;;3.58;0.88;;;21.10;73.60;;;;;;5085301;28;20197;-77
2022/09/16 11:02:45;;;;;;;1.50;0.90;;;21.40;71.30;;;;;;5085759;28;20715;-77
2022/09/16 11:05:17;;;;;;;6.47;1.15;;;21.50;70.80;;;;;;5071924;28;20203;-76
2022/09/16 11:07:55;;;;;;;4.53;1.38;;;21.40;69.50;;;;;;5089468;28;20275;-76
2022/09/16 11:10:30;;;;;;;3.05;1.13;;;21.00;69.50;;;;;;5089674;28;20223;-76
2022/09/16 11:13:16;;;;;;;4.30;1.27;;;20.70;70.20;;;;;;5083506;28;20192;-76
2022/09/16 11:15:56;;;;;;;2.50;0.80;;;20.50;70.50;;;;;;5092218;28;20265;-77
2022/09/16 11:18:36;;;;;;;0.70;0.60;;;20.30;70.80;;;;;;5087308;28;20295;-75
2022/09/16 11:21:25;;;;;;;2.25;0.65;;;20.20;71.70;;;;;;5090294;28;20176;-75
2022/09/16 11:24:09;;;;;;;1.90;1.00;;;20.30;72.40;;;;;;5091367;28;20266;-76
2022/09/16 11:26:45;;;;;;;3.78;1.00;;;20.70;72.30;;;;;;5094943;28;20188;-76
2022/09/16 11:29:28;;;;;;;1.80;0.70;;;20.80;69.90;;;;;;5080773;28;20188;-76
2022/09/16 11:31:59;;;;;;;3.67;1.23;;;20.60;70.20;;;;;;5083694;28;20231;-75
2022/09/16 11:34:43;;;;;;;3.13;1.00;;;20.30;70.50;;;;;;5068649;28;20196;-77
2022/09/16 11:37:21;;;;;;;3.92;1.30;;;20.10;70.90;;;;;;5082612;28;20212;-77
2022/09/16 11:40:12;;;;;;;3.28;1.20;;;19.70;71.70;;;;;;5082380;28;20195;-76
2022/09/16 11:42:43;;;;;;;3.10;0.90;;;19.40;73.70;;;;;;5064681;28;20270;-76
2022/09/16 11:45:28;;;;;;;4.20;1.10;;;19.10;75.50;;;;;;5064610;28;20269;-76
2022/09/16 11:48:14;;;;;;;3.38;1.00;;;18.90;77.50;;;;;;5086468;28;20192;-76
2022/09/16 11:50:48;;;;;;;2.75;1.02;;;18.80;78.70;;;;;;5088444;28;20189;-76
2022/09/16 11:53:39;;;;;;;3.03;1.00;;;18.80;79.30;;;;;;5082815;28;20572;-77
2022/09/16 11:56:13;;;;;;;1.38;1.00;;;18.90;79.40;;;;;;5082807;28;20188;-77
2022/09/16 11:58:46;;;;;;;0.88;0.88;;;19.00;79.50;;;;;;5087689;28;20299;-78
2022/09/16 12:01:21;;;;;;;3.05;1.13;;;19.10;79.50;;;;;;5083589;28;20684;-77
2022/09/16 12:03:53;;;;;;;3.45;0.80;;;19.30;79.50;;;;;;5084003;28;20714;-77
2022/09/16 12:06:25;;;;;;;2.17;1.00;;;19.50;79.10;;;;;;5072547;28;20258;-77
2022/09/16 12:08:59;;;;;;;3.50;1.38;;;19.70;78.30;;;;;;5089422;28;20219;-79
2022/09/16 12:11:32;;;;;;;2.28;1.20;;;19.90;77.70;;;;;;5086399;28;20193;-78
2022/09/16 12:14:08;;;;;;;1.13;0.80;;;20.00;77.10;;;;;;5090795;28;20280;-78
2022/09/16 12:16:43;;;;;;;1.42;0.90;;;20.20;77.30;;;;;;5090405;28;20612;-78
2022/09/16 12:19:16;;;;;;;1.67;0.93;;;20.20;76.60;;;;;;5075357;28;20216;-75
2022/09/16 12:21:48;;;;;;;1.92;0.90;;;20.20;76.00;;;;;;5091237;28;20618;-77
2022/09/16 12:24:23;;;;;;;2.58;1.23;;;20.10;75.50;;;;;;5095998;28;20185;-77
2022/09/16 12:26:55;;;;;;;1.67;0.98;;;20.00;75.50;;;;;;5087537;28;20192;-77
2022/09/16 12:29:32;;;;;;;1.67;0.73;;;19.80;75.50;;;;;;5065922;28;20498;-76
2022/09/16 12:32:04;;;;;;;4.60;0.90;;;19.70;75.30;;;;;;5086447;28;20188;-77
2022/09/16 12:34:35;;;;;;;0.68;0.60;;;19.60;75.00;;;;;;5100071;28;20262;-76
2022/09/16 12:37:12;;;;;;;1.00;0.90;;;19.50;75.30;;;;;;5071748;28;20188;-77
2022/09/16 12:39:40;;;;;;;1.55;0.80;;;19.50;75.60;;;;;;5083050;28;20283;-77
2022/09/16 12:42:57;;;;;;;2.20;1.08;;;19.60;75.90;;;;;;5084494;28;20276;-76
2022/09/16 12:45:53;;;;;;;1.98;0.80;;;19.80;76.00;;;;;;5086524;28;20231;-78
2022/09/16 12:48:47;;;;;;;1.58;1.27;;;20.50;75.30;;;;;;5098436;27;20432;-78
2022/09/16 12:51:38;;;;;;;2.28;0.70;;;21.40;73.30;;;;;;5031115;28;20196;-76
2022/09/16 12:54:33;;;;;;;0.90;0.90;;;22.20;71.30;;;;;;5084800;28;20196;-78
2022/09/16 12:57:17;;;;;;;2.08;1.20;;;22.70;70.60;;;;;;5089354;28;20604;-76
2022/09/16 13:00:06;;;;;;;1.80;1.10;;;23.00;68.90;;;;;;5084471;28;20675;-78
2022/09/16 13:02:37;;;;;;;4.13;0.95;;;23.10;67.70;;;;;;5085516;28;20231;-77
2022/09/16 13:05:13;;;;;;;0.73;0.73;;;22.70;67.30;;;;;;5068774;28;20283;-77
2022/09/16 13:07:41;;;;;;;0.85;0.73;;;22.10;67.80;;;;;;5076055;28;20200;-77
2022/09/16 13:10:17;;;;;;;1.20;0.73;;;21.60;68.50;;;;;;5070000;28;20572;-80
2022/09/16 13:12:53;;;;;;;0.93;0.80;;;21.10;69.20;;;;;;5092139;28;20557;-76
2022/09/16 13:15:29;;;;;;;1.35;0.68;;;20.70;69.40;;;;;;5092755;28;20663;-76